Time;durP1;ratioP1;P1;durP2;ratioP2;P2;SDS_P1;SDS_P2;PMS_P1;PMS_P2;Temp;Humidity;BMP_temperature;BMP_pressure;BME280_temperature;BME280_humidity;BME280_pressure;Samples;Min_cycle;Max_cycle;Signal;HPM_P1;HPM_P2
2023/03/04 00:02:26;;;;;;;28.60;16.00;;;;;;;8.51;44.57;100523.39;107911;1288;23725;-62
2023/03/04 00:04:51;;;;;;;25.30;15.10;;;;;;;8.48;44.42;100524.61;108026;1289;22000;-63
2023/03/04 00:07:17;;;;;;;23.50;14.30;;;;;;;8.45;44.47;100518.48;107359;1289;1002541;-63
2023/03/04 00:09:44;;;;;;;22.70;13.90;;;;;;;8.42;44.35;100513.92;108037;1289;22463;-62
2023/03/04 00:12:11;;;;;;;24.60;14.50;;;;;;;8.38;44.33;100512.54;108045;1289;23617;-62
2023/03/04 00:14:37;;;;;;;27.50;16.50;;;;;;;8.26;44.56;100506.95;108074;1289;22035;-62
2023/03/04 00:17:07;;;;;;;29.10;18.00;;;;;;;8.20;44.56;100504.33;108073;1289;21991;-62
2023/03/04 00:19:34;;;;;;;26.80;16.60;;;;;;;8.14;44.36;100495.95;108061;1288;21990;-62
2023/03/04 00:22:01;;;;;;;27.10;16.10;;;;;;;8.11;44.34;100494.90;108079;1289;21996;-62
2023/03/04 00:24:29;;;;;;;27.90;15.80;;;;;;;8.08;44.48;100495.78;107304;1283;1003328;-62
2023/03/04 00:26:54;;;;;;;24.70;15.50;;;;;;;8.01;44.27;100496.99;108034;1289;22023;-62
2023/03/04 00:29:21;;;;;;;24.60;15.10;;;;;;;7.97;44.28;100497.52;108018;1289;22043;-62
2023/03/04 00:31:47;;;;;;;23.60;14.00;;;;;;;7.96;44.50;100498.04;108096;1289;21990;-62
2023/03/04 00:34:12;;;;;;;27.00;16.00;;;;;;;7.93;44.36;100496.48;108057;1289;21985;-62
2023/03/04 00:36:39;;;;;;;28.60;17.00;;;;;;;7.88;44.34;100489.48;108069;1289;21980;-62
2023/03/04 00:39:05;;;;;;;29.20;17.30;;;;;;;7.81;43.92;100481.44;108058;1277;21986;-62
2023/03/04 00:41:31;;;;;;;30.30;18.80;;;;;;;7.69;43.89;100478.98;108001;1289;21986;-62
2023/03/04 00:43:57;;;;;;;29.80;16.90;;;;;;;7.55;44.25;100473.37;108060;1288;21986;-62
2023/03/04 00:46:22;;;;;;;27.90;16.20;;;;;;;7.46;44.20;100467.61;107278;1289;1002330;-62
2023/03/04 00:48:48;;;;;;;28.00;16.30;;;;;;;7.37;44.45;100465.66;108038;1289;22024;-62
2023/03/04 00:51:14;;;;;;;32.70;16.80;;;;;;;7.25;44.59;100462.66;108071;1289;21986;-62
2023/03/04 00:53:40;;;;;;;26.80;16.00;;;;;;;7.18;44.77;100462.64;108010;1288;21986;-62
2023/03/04 00:56:06;;;;;;;26.90;16.60;;;;;;;7.08;44.82;100472.73;108021;1289;21983;-62
2023/03/04 00:58:32;;;;;;;26.10;16.00;;;;;;;7.00;44.89;100476.71;108154;1288;21992;-61
2023/03/04 01:00:58;;;;;;;26.60;16.10;;;;;;;6.95;45.05;100475.83;108025;1283;21990;-62
2023/03/04 01:03:25;;;;;;;27.30;16.60;;;;;;;6.90;45.04;100475.61;108031;1289;21983;-63
2023/03/04 01:05:52;;;;;;;28.60;15.70;;;;;;;6.87;44.96;100476.66;108051;1288;21985;-62
2023/03/04 01:08:18;;;;;;;27.70;15.90;;;;;;;6.83;44.98;100483.45;108037;1288;21993;-62
2023/03/04 01:10:45;;;;;;;25.10;14.30;;;;;;;6.79;44.73;100482.20;108036;1288;21989;-61
2023/03/04 01:13:11;;;;;;;30.00;16.70;;;;;;;6.71;44.59;100482.87;108036;1289;21980;-63
2023/03/04 01:15:37;;;;;;;28.90;16.30;;;;;;;6.62;44.45;100484.55;108093;1289;21986;-62
2023/03/04 01:18:03;;;;;;;28.40;16.00;;;;;;;6.50;44.61;100483.95;107268;1289;1002539;-62
2023/03/04 01:20:30;;;;;;;29.30;16.80;;;;;;;6.32;44.85;100483.15;108013;1289;21998;-63
2023/03/04 01:22:56;;;;;;;25.30;15.10;;;;;;;6.12;45.70;100485.11;108072;1288;21986;-62
2023/03/04 01:25:22;;;;;;;27.60;16.40;;;;;;;5.99;45.98;100483.76;108051;1288;21988;-62
2023/03/04 01:27:47;;;;;;;27.60;16.10;;;;;;;5.90;45.66;100482.10;108030;1289;21990;-63
2023/03/04 01:30:13;;;;;;;30.00;16.70;;;;;;;5.82;45.96;100477.52;108030;1289;21994;-62
2023/03/04 01:32:40;;;;;;;29.60;16.40;;;;;;;5.80;45.87;100482.20;108010;1289;21988;-62
2023/03/04 01:35:07;;;;;;;32.10;18.10;;;;;;;5.78;45.60;100478.16;108081;1288;21983;-62
2023/03/04 01:37:33;;;;;;;30.60;17.40;;;;;;;5.78;45.61;100475.73;107294;1288;1002861;-62
2023/03/04 01:39:59;;;;;;;28.40;15.90;;;;;;;5.77;45.84;100473.63;108026;1288;22030;-62
2023/03/04 01:42:25;;;;;;;28.80;16.00;;;;;;;5.75;45.62;100472.55;108061;1289;21994;-62
2023/03/04 01:44:51;;;;;;;29.50;16.90;;;;;;;5.74;45.35;100470.29;108057;1288;21995;-63
2023/03/04 01:47:18;;;;;;;29.00;17.30;;;;;;;5.67;45.68;100473.20;107045;1289;1002497;-62
2023/03/04 01:49:46;;;;;;;37.40;19.30;;;;;;;5.60;45.41;100473.48;107308;1289;1003226;-61
2023/03/04 01:52:12;;;;;;;35.30;18.40;;;;;;;5.54;45.58;100475.84;107369;1288;1003112;-61
2023/03/04 01:54:39;;;;;;;31.50;17.70;;;;;;;5.48;45.77;100475.11;108070;1289;22004;-62
2023/03/04 01:57:15;;;;;;;30.40;17.30;;;;;;;5.44;45.98;100474.37;107234;1289;1002398;-61
2023/03/04 01:59:41;;;;;;;33.10;18.00;;;;;;;5.39;46.21;100472.23;107961;1289;21992;-62
2023/03/04 02:02:06;;;;;;;31.40;16.90;;;;;;;5.36;46.07;100464.89;107996;1289;22032;-62
2023/03/04 02:04:35;;;;;;;29.60;16.70;;;;;;;5.34;45.97;100462.08;107894;1289;22177;-62
2023/03/04 02:07:01;;;;;;;32.00;16.30;;;;;;;5.33;46.14;100459.45;107846;1289;22848;-62
2023/03/04 02:09:27;;;;;;;31.90;17.80;;;;;;;5.21;46.71;100451.34;107995;1289;22025;-61
2023/03/04 02:11:53;;;;;;;30.10;16.30;;;;;;;5.18;46.59;100448.16;108036;1288;21982;-62
2023/03/04 02:14:19;;;;;;;33.10;17.20;;;;;;;5.17;46.52;100448.69;107990;1289;22098;-62
2023/03/04 02:16:48;;;;;;;29.50;15.80;;;;;;;5.18;46.58;100448.52;108121;1280;22022;-62
2023/03/04 02:19:18;;;;;;;36.40;18.40;;;;;;;5.20;46.33;100450.80;108044;1289;21986;-62
2023/03/04 02:21:44;;;;;;;34.70;18.60;;;;;;;5.23;46.46;100449.60;108179;1289;21986;-62
2023/03/04 02:24:21;;;;;;;32.20;18.10;;;;;;;5.25;46.41;100451.55;107360;1289;1002628;-63
2023/03/04 02:26:47;;;;;;;33.70;17.80;;;;;;;5.25;46.34;100453.29;107335;1289;1003011;-61
2023/03/04 02:29:17;;;;;;;32.60;18.00;;;;;;;5.21;46.28;100453.94;107224;1289;1003069;-61
2023/03/04 02:31:45;;;;;;;35.30;17.80;;;;;;;5.18;46.04;100456.52;107163;1289;1002443;-61
2023/03/04 02:34:12;;;;;;;31.60;17.80;;;;;;;5.13;46.20;100455.94;107806;1289;24457;-63
2023/03/04 02:36:41;;;;;;;;;;;;;;;5.11;46.19;100454.70;107882;1289;21968;-62
2023/03/04 02:39:12;;;;;;;33.10;16.70;;;;;;;5.09;46.05;100455.90;107854;1289;22021;-61
2023/03/04 02:41:38;;;;;;;29.00;15.80;;;;;;;5.06;46.25;100453.60;107929;1289;21989;-62
2023/03/04 02:44:17;;;;;;;28.50;16.10;;;;;;;4.99;46.68;100452.30;108058;1289;21971;-61
2023/03/04 02:46:44;;;;;;;29.20;16.10;;;;;;;4.91;47.18;100454.64;108080;1288;22046;-62
2023/03/04 02:49:09;;;;;;;29.40;15.80;;;;;;;4.86;47.11;100457.02;108063;1289;22105;-61
2023/03/04 02:51:35;;;;;;;30.80;16.90;;;;;;;4.88;46.70;100457.56;107784;1289;363244;-62
2023/03/04 02:54:02;;;;;;;31.40;17.50;;;;;;;4.93;46.67;100458.33;108059;1289;21989;-61
2023/03/04 02:56:28;;;;;;;30.30;16.40;;;;;;;4.99;46.82;100459.45;108047;1289;22012;-62
2023/03/04 02:58:53;;;;;;;32.60;16.80;;;;;;;5.06;46.87;100455.70;108062;1289;21996;-61
2023/03/04 03:01:19;;;;;;;29.80;16.50;;;;;;;5.12;46.60;100454.88;108074;1289;21971;-61
2023/03/04 03:03:47;;;;;;;30.60;15.80;;;;;;;5.18;46.61;100453.05;108034;1289;21999;-61
2023/03/04 03:06:12;;;;;;;28.30;15.70;;;;;;;5.23;46.42;100452.40;108056;1289;21986;-61
2023/03/04 03:08:43;;;;;;;33.30;17.00;;;;;;;5.27;46.43;100451.57;108052;1276;21986;-61
2023/03/04 03:11:11;;;;;;;28.20;15.30;;;;;;;5.28;46.32;100448.11;108130;1289;23056;-61
2023/03/04 03:13:37;;;;;;;30.80;16.20;;;;;;;5.29;46.51;100445.16;108039;1289;21990;-61
2023/03/04 03:16:03;;;;;;;31.20;17.30;;;;;;;5.28;46.27;100447.41;108091;1289;22019;-62
2023/03/04 03:18:33;;;;;;;31.10;16.30;;;;;;;5.27;46.31;100446.18;108035;1289;22012;-61
2023/03/04 03:20:58;;;;;;;34.50;18.00;;;;;;;5.30;46.12;100446.37;108098;1289;22029;-61
2023/03/04 03:23:24;;;;;;;26.00;14.80;;;;;;;5.32;46.10;100446.56;108061;1280;21986;-62
2023/03/04 03:25:50;;;;;;;32.90;16.20;;;;;;;5.31;46.05;100445.16;108044;1288;21982;-61
2023/03/04 03:28:17;;;;;;;33.10;17.30;;;;;;;5.28;46.20;100446.55;107304;1289;1002472;-61
2023/03/04 03:30:42;;;;;;;31.70;15.80;;;;;;;5.23;46.63;100444.41;107291;1288;1003221;-61
2023/03/04 03:33:09;;;;;;;29.90;16.90;;;;;;;5.21;46.52;100443.15;108004;1289;21984;-63
2023/03/04 03:35:37;;;;;;;31.10;18.50;;;;;;;5.20;46.41;100444.02;108077;1288;23717;-61
2023/03/04 03:38:02;;;;;;;35.20;18.20;;;;;;;5.19;46.20;100443.83;108052;1276;22053;-61
2023/03/04 03:40:28;;;;;;;34.10;17.20;;;;;;;5.17;46.37;100439.80;107997;1289;22032;-61
2023/03/04 03:42:54;;;;;;;33.70;18.30;;;;;;;5.14;46.21;100437.67;107985;1288;21987;-63
2023/03/04 03:45:20;;;;;;;34.20;17.70;;;;;;;5.10;46.24;100439.90;108068;1288;21986;-62
2023/03/04 03:47:46;;;;;;;31.60;17.50;;;;;;;5.06;46.35;100439.52;108031;1288;21984;-61
2023/03/04 03:50:12;;;;;;;34.10;18.20;;;;;;;4.96;46.77;100442.70;107957;1288;21984;-63
2023/03/04 03:52:39;;;;;;;30.20;17.40;;;;;;;4.82;47.08;100446.70;107963;1289;21984;-63
2023/03/04 03:55:05;;;;;;;33.10;17.60;;;;;;;4.69;47.27;100446.71;107224;1289;1002316;-62
2023/03/04 03:57:31;;;;;;;35.70;19.50;;;;;;;4.58;47.28;100447.63;108049;1289;22022;-61
2023/03/04 03:59:56;;;;;;;32.00;18.20;;;;;;;4.52;47.37;100448.75;107981;1289;21994;-62
2023/03/04 04:02:24;;;;;;;33.80;19.20;;;;;;;4.50;47.21;100449.23;107984;1286;22036;-62
2023/03/04 04:04:50;;;;;;;33.60;18.70;;;;;;;4.49;47.35;100449.40;108029;1287;22027;-61
2023/03/04 04:07:16;;;;;;;34.70;19.10;;;;;;;4.45;47.79;100450.73;108010;1288;21985;-62
2023/03/04 04:09:44;;;;;;;35.70;18.30;;;;;;;4.32;48.34;100452.48;108029;1288;21983;-62
2023/03/04 04:12:11;;;;;;;33.90;18.30;;;;;;;4.16;48.76;100455.36;108002;1289;22022;-61
2023/03/04 04:14:40;;;;;;;35.50;18.10;;;;;;;4.04;48.96;100456.59;107940;1289;21988;-62
2023/03/04 04:17:06;;;;;;;33.30;18.30;;;;;;;3.96;49.04;100457.66;108018;1289;22008;-60
2023/03/04 04:19:32;;;;;;;34.20;17.90;;;;;;;3.89;49.05;100460.17;107310;1289;1002352;-62
2023/03/04 04:21:57;;;;;;;34.90;20.20;;;;;;;3.74;49.72;100459.40;108083;1289;22005;-61
2023/03/04 04:24:23;;;;;;;34.90;19.40;;;;;;;3.79;49.23;100459.30;107299;1289;1003171;-62
2023/03/04 04:26:49;;;;;;;34.50;17.90;;;;;;;3.86;48.82;100457.34;107273;1289;1003055;-61
2023/03/04 04:29:15;;;;;;;39.10;19.40;;;;;;;3.92;48.84;100453.95;107282;1288;1002607;-63
2023/03/04 04:31:40;;;;;;;35.50;18.90;;;;;;;3.94;49.19;100452.77;108045;1288;21959;-61
2023/03/04 04:34:07;;;;;;;33.20;18.10;;;;;;;3.96;48.96;100454.20;108008;1289;22044;-61
2023/03/04 04:36:33;;;;;;;35.00;18.20;;;;;;;3.96;48.71;100455.24;108044;1287;21994;-63
2023/03/04 04:38:59;;;;;;;34.60;17.80;;;;;;;3.96;48.33;100453.52;108049;1289;21987;-63
2023/03/04 04:41:27;;;;;;;35.60;19.10;;;;;;;3.96;48.34;100456.46;107983;1289;21988;-62
2023/03/04 04:43:53;;;;;;;35.80;18.90;;;;;;;3.96;48.15;100458.70;108039;1289;21989;-63
2023/03/04 04:46:21;;;;;;;36.40;18.50;;;;;;;3.90;48.67;100460.88;108079;1289;22042;-61
2023/03/04 04:48:48;;;;;;;36.30;18.50;;;;;;;3.81;49.06;100458.98;107969;1289;23087;-63
2023/03/04 04:51:13;;;;;;;37.60;19.00;;;;;;;3.81;48.84;100457.95;109916;1289;22457;-64
2023/03/04 04:53:39;;;;;;;38.10;21.00;;;;;;;3.85;48.88;100459.23;107921;1289;1002439;-64
2023/03/04 04:56:10;;;;;;;36.80;20.30;;;;;;;3.89;48.91;100460.67;107966;1289;21992;-63
2023/03/04 04:58:36;;;;;;;33.30;19.20;;;;;;;3.95;48.67;100457.30;108058;1289;23802;-64
2023/03/04 05:01:03;;;;;;;38.00;19.10;;;;;;;4.01;48.79;100457.58;108012;1289;21988;-63
2023/03/04 05:03:30;;;;;;;36.20;18.30;;;;;;;4.08;48.71;100458.20;108050;1289;21988;-63
2023/03/04 05:05:56;;;;;;;36.90;19.00;;;;;;;4.17;48.59;100456.60;108234;1289;21982;-63
2023/03/04 05:08:22;;;;;;;34.10;18.70;;;;;;;4.25;48.77;100456.89;108059;1289;21986;-64
2023/03/04 05:10:49;;;;;;;33.70;17.20;;;;;;;4.32;48.86;100453.17;108077;1289;22090;-63
2023/03/04 05:13:15;;;;;;;36.70;19.20;;;;;;;4.41;48.76;100452.95;108000;1289;21984;-64
2023/03/04 05:15:41;;;;;;;34.20;17.20;;;;;;;4.51;48.77;100455.17;108033;1289;21986;-63
2023/03/04 05:18:07;;;;;;;40.40;19.30;;;;;;;4.62;48.61;100454.63;108035;1289;21994;-65
2023/03/04 05:20:33;;;;;;;34.90;18.60;;;;;;;4.73;48.87;100453.20;108066;1289;21984;-64
2023/03/04 05:22:58;;;;;;;31.70;16.80;;;;;;;4.84;49.10;100453.69;108009;1289;22121;-64
2023/03/04 05:25:24;;;;;;;36.60;19.90;;;;;;;4.93;49.61;100449.78;108078;1288;22040;-63
2023/03/04 05:27:50;;;;;;;34.80;19.60;;;;;;;5.05;49.31;100449.77;107256;1289;1003100;-65
2023/03/04 05:30:16;;;;;;;32.40;18.00;;;;;;;5.18;49.17;100451.64;107731;1287;1002650;-63
2023/03/04 05:32:42;;;;;;;33.80;17.80;;;;;;;5.29;49.22;100454.90;108124;1288;22026;-62
2023/03/04 05:35:08;;;;;;;40.50;19.60;;;;;;;5.43;49.36;100454.86;108036;1281;21986;-62
2023/03/04 05:37:34;;;;;;;38.20;19.20;;;;;;;5.59;49.62;100452.92;108054;1289;21989;-63
2023/03/04 05:40:01;;;;;;;38.10;20.20;;;;;;;5.69;50.33;100453.70;108065;1289;21990;-61
2023/03/04 05:42:27;;;;;;;38.40;20.00;;;;;;;5.82;50.21;100452.09;108049;1289;22009;-64
2023/03/04 05:44:53;;;;;;;32.30;17.30;;;;;;;5.95;50.00;100451.32;108021;1289;22284;-63
2023/03/04 05:47:19;;;;;;;35.80;20.00;;;;;;;6.07;49.82;100446.38;107311;1289;1003091;-62
2023/03/04 05:49:45;;;;;;;37.40;20.30;;;;;;;6.19;49.79;100448.05;108056;1275;21989;-63
2023/03/04 05:52:11;;;;;;;33.50;18.70;;;;;;;6.31;49.62;100449.86;107304;1289;1003606;-64
2023/03/04 05:54:36;;;;;;;37.00;20.60;;;;;;;6.41;49.65;100447.98;107285;1289;1002334;-64
2023/03/04 05:57:02;;;;;;;35.80;18.90;;;;;;;6.50;49.26;100447.17;108059;1289;21997;-63
2023/03/04 05:59:28;;;;;;;35.50;19.40;;;;;;;6.66;49.04;100447.79;108032;1289;22024;-62
2023/03/04 06:01:55;;;;;;;30.40;16.90;;;;;;;6.83;49.35;100449.78;108065;1288;21990;-63
2023/03/04 06:04:21;;;;;;;37.70;20.10;;;;;;;6.97;49.67;100452.10;108014;1289;21983;-64
2023/03/04 06:06:52;;;;;;;38.10;19.60;;;;;;;7.12;49.13;100448.84;108082;1289;21983;-63
2023/03/04 06:09:19;;;;;;;31.20;17.70;;;;;;;7.23;49.02;100445.38;108038;1288;21985;-64
2023/03/04 06:11:45;;;;;;;36.20;19.90;;;;;;;7.31;49.06;100443.65;108132;1289;22024;-63
2023/03/04 06:14:17;;;;;;;30.00;17.70;;;;;;;7.41;48.82;100446.46;108057;1278;22004;-63
2023/03/04 06:16:42;;;;;;;36.00;17.70;;;;;;;7.53;48.76;100445.25;108026;1289;21991;-63
2023/03/04 06:19:08;;;;;;;29.80;17.40;;;;;;;7.60;48.42;100447.02;108009;1289;22456;-63
2023/03/04 06:21:35;;;;;;;34.30;19.70;;;;;;;7.70;48.54;100448.23;108056;1289;21999;-63
2023/03/04 06:24:02;;;;;;;30.70;18.30;;;;;;;7.78;48.62;100447.36;108009;1287;21985;-63
2023/03/04 06:26:28;;;;;;;30.50;19.10;;;;;;;7.82;48.41;100444.75;107978;1289;22047;-63
2023/03/04 06:28:55;;;;;;;32.50;17.80;;;;;;;7.91;48.24;100441.61;108037;1289;21998;-63
2023/03/04 06:31:22;;;;;;;30.70;17.10;;;;;;;8.03;48.27;100436.71;107983;1289;21994;-63
2023/03/04 06:33:47;;;;;;;30.70;17.70;;;;;;;8.14;48.22;100434.77;108019;1288;21991;-64
2023/03/04 06:36:13;;;;;;;30.40;17.20;;;;;;;8.19;48.01;100432.32;108029;1287;21988;-64
2023/03/04 06:38:39;;;;;;;31.50;17.70;;;;;;;8.30;47.78;100433.69;108024;1289;21989;-64
2023/03/04 06:41:09;;;;;;;31.10;18.10;;;;;;;8.47;47.86;100435.08;108079;1289;22008;-63
2023/03/04 06:43:35;;;;;;;27.70;16.50;;;;;;;8.62;47.80;100434.52;108069;1289;23693;-63
2023/03/04 06:46:06;;;;;;;28.50;15.70;;;;;;;8.75;47.37;100436.41;108022;1289;22023;-63
2023/03/04 06:48:33;;;;;;;28.80;16.30;;;;;;;8.88;47.22;100434.42;108084;1289;21997;-63
2023/03/04 06:51:08;;;;;;;25.50;15.50;;;;;;;9.04;46.97;100432.94;108083;1288;22004;-63
2023/03/04 06:53:38;;;;;;;29.60;15.70;;;;;;;9.20;46.79;100435.31;108049;1289;23856;-63
2023/03/04 06:56:04;;;;;;;23.50;14.40;;;;;;;9.32;46.64;100435.94;107307;1288;1002275;-63
2023/03/04 06:58:30;;;;;;;26.00;15.20;;;;;;;9.37;46.10;100435.73;108079;1289;21992;-63
2023/03/04 07:00:56;;;;;;;27.20;16.10;;;;;;;9.43;45.95;100432.89;108108;1289;22000;-63
2023/03/04 07:03:22;;;;;;;22.60;14.40;;;;;;;9.53;45.82;100432.82;107281;1289;1002644;-62
2023/03/04 07:05:48;;;;;;;25.30;15.00;;;;;;;9.61;45.78;100428.91;107281;1289;1002981;-65
2023/03/04 07:08:15;;;;;;;24.60;14.70;;;;;;;9.70;45.56;100422.71;108047;1283;22016;-63
2023/03/04 07:10:41;;;;;;;23.20;13.00;;;;;;;9.80;45.35;100425.08;107300;1289;1002593;-61
2023/03/04 07:13:07;;;;;;;21.30;12.70;;;;;;;9.92;45.21;100427.09;107285;1288;1002494;-61
2023/03/04 07:15:35;;;;;;;25.00;14.10;;;;;;;9.95;44.84;100418.64;107996;1289;21991;-62
2023/03/04 07:18:00;;;;;;;22.70;13.70;;;;;;;10.07;44.71;100418.36;108015;1288;21989;-64
2023/03/04 07:20:26;;;;;;;22.30;13.90;;;;;;;10.15;44.29;100422.31;108005;1289;21973;-64
2023/03/04 07:22:53;;;;;;;21.10;12.80;;;;;;;10.13;43.63;100425.48;108055;1289;21990;-64
2023/03/04 07:25:19;;;;;;;23.50;13.50;;;;;;;10.17;43.89;100423.34;108023;1289;21979;-63
2023/03/04 07:27:49;;;;;;;22.80;14.00;;;;;;;10.19;43.65;100419.64;108089;1289;21986;-64
2023/03/04 07:30:15;;;;;;;22.90;14.30;;;;;;;10.22;43.67;100416.98;108009;1289;22453;-63
2023/03/04 07:32:41;;;;;;;22.50;14.10;;;;;;;10.36;43.61;100409.48;108072;1289;22007;-63
2023/03/04 07:35:07;;;;;;;22.10;14.10;;;;;;;10.43;43.47;100404.15;108033;1286;22027;-63
2023/03/04 07:37:33;;;;;;;21.80;13.10;;;;;;;10.60;43.52;100401.69;108012;1288;22874;-63
2023/03/04 07:39:58;;;;;;;18.80;11.80;;;;;;;10.75;43.27;100405.36;108015;1289;23611;-64
2023/03/04 07:42:24;;;;;;;22.40;13.30;;;;;;;10.79;42.59;100400.74;108054;1288;22019;-64
2023/03/04 07:44:54;;;;;;;23.00;12.20;;;;;;;10.96;42.82;100398.60;108012;1289;21998;-64
2023/03/04 07:47:20;;;;;;;20.70;12.70;;;;;;;11.12;42.79;100399.95;108019;1276;21997;-63
2023/03/04 07:49:45;;;;;;;18.70;11.70;;;;;;;11.22;41.88;100394.02;108058;1282;21987;-63
2023/03/04 07:52:13;;;;;;;18.40;10.90;;;;;;;11.30;41.84;100392.49;108105;1288;21986;-64
2023/03/04 07:54:39;;;;;;;22.30;12.60;;;;;;;11.35;41.42;100389.27;108052;1289;21997;-64
2023/03/04 07:57:09;;;;;;;17.50;11.10;;;;;;;11.38;41.30;100387.80;108064;1289;21997;-65
2023/03/04 07:59:35;;;;;;;18.10;10.50;;;;;;;11.51;41.58;100387.59;107306;1277;1002472;-64
2023/03/04 08:02:00;;;;;;;20.40;12.00;;;;;;;11.59;40.76;100381.51;108007;1289;22007;-64
2023/03/04 08:04:26;;;;;;;18.10;11.80;;;;;;;11.75;40.41;100381.59;108036;1289;21994;-64
2023/03/04 08:06:52;;;;;;;16.50;10.40;;;;;;;11.90;40.71;100382.38;108024;1289;21988;-63
2023/03/04 08:09:21;;;;;;;18.10;11.30;;;;;;;11.93;39.93;100382.86;108030;1288;21991;-63
2023/03/04 08:11:46;;;;;;;17.00;10.80;;;;;;;11.97;40.10;100381.40;108076;1289;21991;-63
2023/03/04 08:14:12;;;;;;;16.40;10.70;;;;;;;12.13;40.47;100380.23;107990;1288;21982;-64
2023/03/04 08:16:39;;;;;;;19.20;12.30;;;;;;;12.28;39.95;100379.77;108013;1289;22734;-63
2023/03/04 08:19:05;;;;;;;17.80;11.60;;;;;;;12.39;39.97;100380.45;108086;1287;22122;-64
2023/03/04 08:21:31;;;;;;;16.70;11.20;;;;;;;12.39;39.89;100372.34;106542;1289;2002467;-64
2023/03/04 08:24:00;;;;;;;17.50;10.80;;;;;;;12.51;40.22;100370.19;108010;1289;21989;-63
2023/03/04 08:26:28;;;;;;;14.20;9.80;;;;;;;12.69;39.97;100364.89;108057;1288;22008;-63
2023/03/04 08:28:55;;;;;;;17.00;9.90;;;;;;;12.87;39.04;100363.80;108022;1289;23570;-64
2023/03/04 08:31:23;;;;;;;14.20;9.70;;;;;;;13.03;39.06;100364.33;108063;1289;21983;-64
2023/03/04 08:33:51;;;;;;;16.30;10.80;;;;;;;13.25;39.19;100358.88;108054;1289;21988;-64
2023/03/04 08:36:17;;;;;;;15.70;10.60;;;;;;;13.40;38.58;100361.71;108084;1289;22026;-64
2023/03/04 08:38:43;;;;;;;14.20;8.90;;;;;;;13.48;38.21;100357.11;108006;1288;21999;-65
2023/03/04 08:41:09;;;;;;;17.10;9.70;;;;;;;13.50;38.20;100357.77;108055;1289;21983;-63
2023/03/04 08:43:34;;;;;;;15.20;10.10;;;;;;;13.50;37.93;100356.91;108044;1289;21977;-64
2023/03/04 08:46:01;;;;;;;17.80;10.40;;;;;;;13.61;38.16;100354.17;108034;1289;23037;-64
2023/03/04 08:48:26;;;;;;;16.40;9.70;;;;;;;13.68;38.09;100349.94;108035;1276;21989;-63
2023/03/04 08:50:53;;;;;;;14.60;9.60;;;;;;;13.74;37.79;100351.20;108030;1289;21992;-63
2023/03/04 08:53:19;;;;;;;15.30;10.90;;;;;;;13.82;37.56;100349.23;108082;1288;21973;-65
2023/03/04 08:55:46;;;;;;;15.00;10.20;;;;;;;13.84;37.40;100342.11;108042;1288;22003;-63
2023/03/04 08:58:11;;;;;;;15.50;10.70;;;;;;;13.87;37.38;100339.73;108022;1289;22005;-65
2023/03/04 09:00:39;;;;;;;14.90;9.80;;;;;;;13.98;37.40;100336.63;108062;1289;21992;-63
2023/03/04 09:03:24;;;;;;;14.70;10.00;;;;;;;14.15;37.29;100332.11;108022;1289;21993;-64
2023/03/04 09:05:52;;;;;;;15.50;9.80;;;;;;;14.26;36.98;100327.92;108028;1289;21987;-64
2023/03/04 09:08:19;;;;;;;15.90;9.70;;;;;;;14.35;36.27;100323.61;108022;1289;22004;-64
2023/03/04 09:10:45;;;;;;;18.30;9.20;;;;;;;14.58;36.61;100320.45;108033;1289;22442;-64
2023/03/04 09:13:16;;;;;;;16.70;8.50;;;;;;;14.78;36.92;100317.61;107987;1289;21991;-64
2023/03/04 09:15:46;;;;;;;17.00;9.00;;;;;;;14.98;36.09;100308.33;108003;1289;21956;-63
2023/03/04 09:18:12;;;;;;;11.50;8.00;;;;;;;15.20;35.89;100307.98;108035;1289;21995;-64
2023/03/04 09:20:38;;;;;;;13.20;8.20;;;;;;;15.35;35.48;100298.84;108034;1289;21989;-64
2023/03/04 09:23:04;;;;;;;12.90;8.50;;;;;;;15.45;35.20;100298.16;108031;1288;21989;-65
2023/03/04 09:25:30;;;;;;;14.20;8.30;;;;;;;15.52;35.24;100288.36;108060;1289;22009;-62
2023/03/04 09:27:56;;;;;;;11.90;7.70;;;;;;;15.69;35.56;100285.83;108006;1288;21992;-63
2023/03/04 09:30:22;;;;;;;13.50;8.80;;;;;;;15.71;34.73;100282.58;108030;1288;23647;-62
2023/03/04 09:32:52;;;;;;;13.00;8.40;;;;;;;15.83;34.61;100282.00;108010;1289;23612;-62
2023/03/04 09:35:18;;;;;;;14.00;9.70;;;;;;;15.93;35.14;100277.39;108011;1289;22063;-62
2023/03/04 09:37:45;;;;;;;13.40;9.10;;;;;;;16.01;35.27;100272.52;108052;1289;22000;-63
2023/03/04 09:40:23;;;;;;;13.50;9.40;;;;;;;16.02;34.51;100269.45;108046;1289;21981;-63
2023/03/04 09:42:57;;;;;;;13.30;9.90;;;;;;;15.99;33.94;100269.05;108058;1289;21987;-63
2023/03/04 09:45:50;;;;;;;14.60;9.60;;;;;;;16.04;34.47;100265.70;108052;1288;21991;-64
2023/03/04 09:48:21;;;;;;;15.20;9.10;;;;;;;16.00;33.83;100259.10;108083;1289;21994;-63
2023/03/04 09:50:58;;;;;;;15.90;9.40;;;;;;;15.98;33.97;100256.72;108117;1289;21984;-63
2023/03/04 09:53:39;;;;;;;12.90;8.70;;;;;;;15.94;34.39;100245.34;108106;1289;22454;-63
2023/03/04 09:56:05;;;;;;;11.60;8.20;;;;;;;15.98;34.86;100237.39;108030;1288;21997;-63
2023/03/04 09:58:57;;;;;;;13.00;9.00;;;;;;;16.02;34.16;100236.73;107954;1289;22028;-64
2023/03/04 10:01:28;;;;;;;13.80;9.40;;;;;;;16.09;34.22;100229.04;108031;1289;22073;-63
2023/03/04 10:03:57;;;;;;;14.70;9.50;;;;;;;16.15;33.86;100220.52;107262;1289;1002115;-63
2023/03/04 10:06:23;;;;;;;14.70;8.90;;;;;;;16.18;33.71;100209.77;108055;1289;22045;-63
2023/03/04 10:09:10;;;;;;;17.60;10.30;;;;;;;16.24;34.03;100206.15;108023;1289;22000;-63
2023/03/04 10:11:58;;;;;;;14.80;10.20;;;;;;;16.34;33.75;100199.77;108031;1284;21998;-63
2023/03/04 10:14:45;;;;;;;18.30;10.60;;;;;;;16.36;33.32;100193.67;108041;1289;21994;-63
2023/03/04 10:17:12;;;;;;;14.30;10.00;;;;;;;16.50;33.62;100184.97;108031;1288;21991;-64
2023/03/04 10:20:06;;;;;;;16.20;10.40;;;;;;;16.69;33.89;100174.13;108105;1288;22010;-62
2023/03/04 10:22:36;;;;;;;16.70;10.60;;;;;;;16.62;33.59;100165.68;108006;1289;21991;-64
2023/03/04 10:25:19;;;;;;;16.60;10.00;;;;;;;16.67;33.98;100161.80;108026;1289;21983;-63
2023/03/04 10:27:56;;;;;;;18.50;10.00;;;;;;;16.69;33.68;100157.30;108119;1280;21991;-63
2023/03/04 10:30:36;;;;;;;17.90;10.90;;;;;;;16.70;33.53;100152.45;108062;1289;24307;-63
2023/03/04 10:33:14;;;;;;;13.90;9.90;;;;;;;16.80;33.75;100147.27;108032;1289;23067;-64
2023/03/04 10:35:44;;;;;;;13.60;9.00;;;;;;;16.94;33.93;100141.73;107943;1289;21998;-63
2023/03/04 10:38:10;;;;;;;14.90;10.40;;;;;;;17.03;33.24;100132.14;107842;1288;21997;-63
2023/03/04 10:40:39;;;;;;;17.00;11.00;;;;;;;17.17;34.02;100123.56;108039;1289;21995;-63
2023/03/04 10:43:07;;;;;;;16.40;10.60;;;;;;;17.24;33.57;100111.55;108084;1289;23656;-63
2023/03/04 10:45:37;;;;;;;15.70;10.70;;;;;;;17.40;33.18;100102.52;108061;1288;23657;-63
2023/03/04 10:48:03;;;;;;;15.10;10.30;;;;;;;17.37;32.61;100096.45;108042;1289;21998;-63
2023/03/04 10:50:29;;;;;;;15.20;10.40;;;;;;;17.16;32.60;100097.70;107990;1288;21989;-64
2023/03/04 10:52:55;;;;;;;14.80;9.80;;;;;;;17.07;33.12;100091.39;108018;1289;22029;-64
2023/03/04 10:55:28;;;;;;;15.90;10.40;;;;;;;17.21;33.56;100085.09;108013;1289;22030;-62
2023/03/04 10:58:02;;;;;;;13.80;9.80;;;;;;;17.33;33.16;100082.63;108073;1289;22020;-63
2023/03/04 11:00:34;;;;;;;13.70;9.90;;;;;;;17.56;32.73;100076.27;108049;1288;21985;-63
2023/03/04 11:03:31;;;;;;;15.70;9.80;;;;;;;17.63;32.19;100072.04;108075;1288;21992;-63
2023/03/04 11:06:10;;;;;;;13.90;8.70;;;;;;;17.85;32.09;100061.44;108027;1289;21984;-63
2023/03/04 11:08:38;;;;;;;12.40;9.10;;;;;;;17.84;31.61;100058.64;108064;1289;22736;-63
2023/03/04 11:11:33;;;;;;;15.10;10.20;;;;;;;17.92;31.80;100048.33;108148;1288;21987;-62